createdAt,value
2022-09-03T00:00:26.946Z,97513.72
2022-09-03T00:03:07.099Z,97525.75
2022-09-03T00:06:01.043Z,97533.56
2022-09-03T00:08:33.506Z,97522.72
2022-09-03T00:11:23.038Z,97515.09
2022-09-03T00:14:14.199Z,97512.97
2022-09-03T00:16:52.972Z,97516.63
2022-09-03T00:19:24.756Z,97485.06
2022-09-03T00:22:02.906Z,97487.63
2022-09-03T00:24:34.003Z,97494.38
2022-09-03T00:27:05.324Z,97508.38
2022-09-03T00:29:54.232Z,97516.03
2022-09-03T00:32:27.858Z,97518.19
2022-09-03T00:35:01.467Z,97517.75
2022-09-03T00:37:30.120Z,97514.38
2022-09-03T00:40:10.911Z,97509.84
2022-09-03T00:42:55.393Z,97506.38
2022-09-03T00:45:25.428Z,97508.00
2022-09-03T00:48:27.925Z,97502.72
2022-09-03T00:51:39.280Z,97504.38
2022-09-03T00:54:25.531Z,97510.53
2022-09-03T00:57:01.009Z,97502.84
2022-09-03T00:59:42.001Z,97508.06
2022-09-03T01:02:34.194Z,97510.28
2022-09-03T01:05:11.640Z,97519.41
2022-09-03T01:07:49.798Z,97523.41
2022-09-03T01:10:50.578Z,97520.38
2022-09-03T01:13:30.904Z,97504.59
2022-09-03T01:16:20.509Z,97516.47
2022-09-03T01:19:05.759Z,97518.22
2022-09-03T01:21:49.886Z,97516.72
2022-09-03T01:24:45.055Z,97522.03
2022-09-03T01:27:35.788Z,97519.50
2022-09-03T01:30:17.919Z,97516.31
2022-09-03T01:33:04.247Z,97515.75
2022-09-03T01:35:36.823Z,97518.09
2022-09-03T01:38:18.305Z,97513.41
2022-09-03T01:40:57.089Z,97521.50
2022-09-03T01:43:51.794Z,97519.19
2022-09-03T01:46:29.229Z,97518.88
2022-09-03T01:49:11.773Z,97522.13
2022-09-03T01:51:38.601Z,97531.13
2022-09-03T01:54:29.874Z,97537.97
2022-09-03T01:57:35.214Z,97538.78
2022-09-03T02:00:06.116Z,97526.09
2022-09-03T02:02:33.327Z,97532.13
2022-09-03T02:05:09.993Z,97539.50
2022-09-03T02:07:43.697Z,97536.09
2022-09-03T02:10:18.027Z,97539.88
2022-09-03T02:12:57.138Z,97534.69
2022-09-03T02:15:26.086Z,97536.16
2022-09-03T02:17:56.567Z,97537.44
2022-09-03T02:20:26.663Z,97541.44
2022-09-03T02:22:54.356Z,97549.63
2022-09-03T02:25:23.754Z,97542.25
2022-09-03T02:27:51.286Z,97545.00
2022-09-03T02:30:18.675Z,97545.84
2022-09-03T02:32:45.238Z,97539.13
2022-09-03T02:35:14.980Z,97550.66
2022-09-03T02:37:41.919Z,97558.78
2022-09-03T02:40:10.376Z,97542.47
2022-09-03T02:42:36.993Z,97554.66
2022-09-03T02:45:29.980Z,97552.72
2022-09-03T02:48:00.213Z,97558.97
2022-09-03T02:50:27.440Z,97563.34
2022-09-03T02:52:54.298Z,97557.28
2022-09-03T02:55:21.295Z,97546.19
2022-09-03T02:57:48.062Z,97548.44
2022-09-03T03:00:17.734Z,97546.16
2022-09-03T03:02:44.478Z,97524.72
2022-09-03T03:05:18.699Z,97537.25
2022-09-03T03:07:48.286Z,97560.19
2022-09-03T03:10:14.950Z,97563.94
2022-09-03T03:12:41.485Z,97557.50
2022-09-03T03:15:08.333Z,97558.94
2022-09-03T03:17:34.975Z,97549.53
2022-09-03T03:20:01.591Z,97565.69
2022-09-03T03:22:28.178Z,97560.09
2022-09-03T03:24:57.004Z,97558.63
2022-09-03T03:27:24.019Z,97548.63
2022-09-03T03:29:50.813Z,97545.94
2022-09-03T03:32:20.176Z,97559.69
2022-09-03T03:34:49.890Z,97548.34
2022-09-03T03:37:16.585Z,97549.47
2022-09-03T03:39:43.233Z,97536.00
2022-09-03T03:42:09.814Z,97549.72
2022-09-03T03:44:36.334Z,97531.63
2022-09-03T03:47:05.136Z,97552.75
2022-09-03T03:49:31.706Z,97561.47
2022-09-03T03:51:58.231Z,97555.75
2022-09-03T03:54:24.785Z,97554.66
2022-09-03T03:56:55.651Z,97552.69
2022-09-03T03:59:22.833Z,97547.78
2022-09-03T04:01:50.964Z,97544.72
2022-09-03T04:04:18.026Z,97554.91
2022-09-03T04:06:44.565Z,97534.94
2022-09-03T04:09:11.125Z,97543.81
2022-09-03T04:11:37.779Z,97542.53
2022-09-03T04:14:04.686Z,97551.88
2022-09-03T04:16:32.912Z,97555.56
2022-09-03T04:18:59.628Z,97547.03
2022-09-03T04:21:28.654Z,97516.75
2022-09-03T04:23:56.279Z,97554.53
2022-09-03T04:26:26.076Z,97561.81
2022-09-03T04:28:52.861Z,97555.78
2022-09-03T04:31:23.448Z,97555.22
2022-09-03T04:33:51.266Z,97540.75
2022-09-03T04:36:23.419Z,97560.19
2022-09-03T04:38:54.181Z,97558.63
2022-09-03T04:41:26.394Z,97549.19
2022-09-03T04:43:54.421Z,97556.94
2022-09-03T04:46:23.526Z,97558.59
2022-09-03T04:48:51.903Z,97557.66
2022-09-03T04:51:21.992Z,97548.53
2022-09-03T04:53:54.500Z,97532.53
2022-09-03T04:56:23.933Z,97551.25
2022-09-03T04:58:57.873Z,97561.25
2022-09-03T05:01:30.458Z,97552.59
2022-09-03T05:03:58.204Z,97562.28
2022-09-03T05:06:27.131Z,97549.50
2022-09-03T05:08:55.615Z,97555.94
2022-09-03T05:11:23.343Z,97556.38
2022-09-03T05:13:54.954Z,97549.28
2022-09-03T05:16:23.642Z,97565.34
2022-09-03T05:18:55.113Z,97560.06
2022-09-03T05:21:22.684Z,97532.31
2022-09-03T05:23:54.206Z,97558.22
2022-09-03T05:26:26.666Z,97547.88
2022-09-03T05:28:55.390Z,97555.28
2022-09-03T05:31:23.646Z,97558.47
2022-09-03T05:33:55.392Z,97559.22
2022-09-03T05:36:24.802Z,97547.97
2022-09-03T05:38:54.814Z,97557.16
2022-09-03T05:41:24.934Z,97547.53
2022-09-03T05:43:55.986Z,97559.94
2022-09-03T05:46:32.204Z,97554.78
2022-09-03T05:49:06.910Z,97553.03
2022-09-03T05:51:35.542Z,97557.91
2022-09-03T05:54:03.021Z,97563.97
2022-09-03T05:56:32.110Z,97564.19
2022-09-03T05:59:01.686Z,97564.84
2022-09-03T06:01:31.247Z,97555.03
2022-09-03T06:04:06.490Z,97569.69
2022-09-03T06:06:36.249Z,97577.00
2022-09-03T06:09:17.892Z,97573.69
2022-09-03T06:11:46.273Z,97574.81
2022-09-03T06:14:14.408Z,97561.53
2022-09-03T06:16:43.475Z,97577.00
2022-09-03T06:19:16.149Z,97572.91
2022-09-03T06:21:44.402Z,97569.41
2022-09-03T06:24:16.880Z,97584.00
2022-09-03T06:26:46.558Z,97578.38
2022-09-03T06:29:13.542Z,97593.28
2022-09-03T06:31:40.487Z,97589.00
2022-09-03T06:34:07.733Z,97588.25
2022-09-03T06:36:34.596Z,97592.19
2022-09-03T06:39:01.607Z,97581.47
2022-09-03T06:41:33.780Z,97587.09
2022-09-03T06:44:03.291Z,97579.63
2022-09-03T06:46:32.712Z,97582.00
2022-09-03T06:48:59.422Z,97569.06
2022-09-03T06:51:28.380Z,97578.44
2022-09-03T06:54:00.971Z,97593.47
2022-09-03T06:56:27.603Z,97581.28
2022-09-03T06:58:57.682Z,97596.44
2022-09-03T07:01:28.416Z,97601.25
2022-09-03T07:03:56.968Z,97601.59
2022-09-03T07:06:25.865Z,97604.50
2022-09-03T07:08:52.996Z,97596.56
2022-09-03T07:11:24.100Z,97591.88
2022-09-03T07:13:55.874Z,97602.19
2022-09-03T07:16:24.941Z,97601.88
2022-09-03T07:18:52.764Z,97602.50
2022-09-03T07:21:24.688Z,97607.38
2022-09-03T07:23:55.419Z,97599.69
2022-09-03T07:26:28.386Z,97602.00
2022-09-03T07:28:56.012Z,97607.88
2022-09-03T07:31:34.833Z,97611.75
2022-09-03T07:34:09.904Z,97608.38
2022-09-03T07:36:48.823Z,97619.56
2022-09-03T07:39:16.471Z,97614.50
2022-09-03T07:41:46.043Z,97624.88
2022-09-03T07:44:15.365Z,97619.06
2022-09-03T07:46:43.671Z,97623.66
2022-09-03T07:49:11.014Z,97624.16
2022-09-03T07:51:39.034Z,97622.63
2022-09-03T07:54:08.308Z,97609.41
2022-09-03T07:56:36.285Z,97618.88
2022-09-03T07:59:04.105Z,97615.66
2022-09-03T08:01:32.812Z,97624.03
2022-09-03T08:04:00.115Z,97621.75
2022-09-03T08:06:29.016Z,97608.84
2022-09-03T08:09:04.152Z,97625.44
2022-09-03T08:11:31.974Z,97626.47
2022-09-03T08:14:07.843Z,97622.41
2022-09-03T08:16:36.993Z,97619.94
2022-09-03T08:19:10.644Z,97604.38
2022-09-03T08:21:37.999Z,97593.81
2022-09-03T08:24:05.129Z,97613.06
2022-09-03T08:26:34.251Z,97620.69
2022-09-03T08:29:01.888Z,97627.97
2022-09-03T08:31:29.687Z,97619.72
2022-09-03T08:33:58.555Z,97633.47
2022-09-03T08:36:27.064Z,97642.75
2022-09-03T08:38:55.438Z,97637.41
2022-09-03T08:41:53.241Z,97641.50
2022-09-03T08:44:30.743Z,97641.56
2022-09-03T08:47:09.352Z,97638.19
2022-09-03T08:50:01.550Z,97639.34
2022-09-03T08:52:50.121Z,97645.50
2022-09-03T08:55:27.420Z,97647.09
2022-09-03T08:57:59.940Z,97652.91
2022-09-03T09:00:38.987Z,97660.34
2022-09-03T09:03:26.898Z,97652.47
2022-09-03T09:06:18.724Z,97636.81
2022-09-03T09:09:10.978Z,97654.06
2022-09-03T09:11:43.557Z,97661.81
2022-09-03T09:14:35.022Z,97662.66
2022-09-03T09:17:14.996Z,97651.34
2022-09-03T09:19:54.194Z,97665.75
2022-09-03T09:22:30.406Z,97647.56
2022-09-03T09:25:16.967Z,97655.13
2022-09-03T09:28:14.236Z,97657.88
2022-09-03T09:30:41.330Z,97656.03
2022-09-03T09:33:07.898Z,97674.41
2022-09-03T09:35:35.355Z,97665.75
2022-09-03T09:38:02.334Z,97670.50
2022-09-03T09:40:35.909Z,97634.25
2022-09-03T09:43:21.873Z,97641.84
2022-09-03T09:45:53.644Z,97657.00
2022-09-03T09:48:31.391Z,97661.97
2022-09-03T09:51:11.039Z,97664.16
2022-09-03T09:53:38.490Z,97654.72
2022-09-03T09:56:05.293Z,97664.44
2022-09-03T09:58:34.493Z,97663.06
2022-09-03T10:01:01.008Z,97660.06
2022-09-03T10:03:29.877Z,97650.00
2022-09-03T10:06:27.495Z,97650.19
2022-09-03T10:09:08.627Z,97653.47
2022-09-03T10:11:38.913Z,97647.75
2022-09-03T10:14:11.568Z,97648.81
2022-09-03T10:16:49.001Z,97655.81
2022-09-03T10:19:17.384Z,97653.56
2022-09-03T10:21:44.180Z,97647.59
2022-09-03T10:24:33.848Z,97647.91
2022-09-03T10:27:01.807Z,97644.06
2022-09-03T10:29:30.113Z,97641.78
2022-09-03T10:32:36.876Z,97645.47
2022-09-03T10:35:29.704Z,97646.91
2022-09-03T10:38:11.147Z,97638.91
2022-09-03T10:40:59.628Z,97637.75
2022-09-03T10:43:32.643Z,97643.75
2022-09-03T10:46:00.162Z,97645.88
2022-09-03T10:48:51.681Z,97646.16
2022-09-03T10:51:42.641Z,97639.47
2022-09-03T10:54:17.785Z,97641.53
2022-09-03T10:57:02.909Z,97631.13
2022-09-03T10:59:33.701Z,97621.19
2022-09-03T11:02:18.335Z,97637.22
2022-09-03T11:05:03.041Z,97639.03
2022-09-03T11:07:39.079Z,97634.19
2022-09-03T11:10:30.880Z,97633.50
2022-09-03T11:12:57.872Z,97631.44
2022-09-03T11:15:44.841Z,97606.81
2022-09-03T11:18:16.828Z,97606.03
2022-09-03T11:20:44.911Z,97604.06
2022-09-03T11:23:16.053Z,97606.59
2022-09-03T11:25:56.718Z,97608.84
2022-09-03T11:28:28.898Z,97608.25
2022-09-03T11:31:25.678Z,97607.25
2022-09-03T11:34:01.702Z,97598.94
2022-09-03T11:36:32.049Z,97581.59
2022-09-03T11:38:59.654Z,97610.03
2022-09-03T11:41:35.819Z,97612.53
2022-09-03T11:44:22.939Z,97616.16
2022-09-03T11:46:59.253Z,97615.66
2022-09-03T11:49:31.741Z,97602.97
2022-09-03T11:52:02.487Z,97611.81
2022-09-03T11:54:32.959Z,97606.22
2022-09-03T11:57:23.084Z,97591.44
2022-09-03T11:59:49.856Z,97588.38
2022-09-03T12:02:35.851Z,97588.84
2022-09-03T12:05:23.306Z,97596.84
2022-09-03T12:08:23.719Z,97591.00
2022-09-03T12:10:59.651Z,97593.22
2022-09-03T12:13:35.606Z,97587.88
2022-09-03T12:16:16.498Z,97587.06
2022-09-03T12:18:45.718Z,97600.97
2022-09-03T12:21:12.754Z,97593.06
2022-09-03T12:23:49.278Z,97593.03
2022-09-03T12:26:28.703Z,97594.84
2022-09-03T12:28:58.925Z,97596.88
2022-09-03T12:31:32.530Z,97605.59
2022-09-03T12:34:11.161Z,97606.00
2022-09-03T12:36:43.104Z,97603.16
2022-09-03T12:42:25.531Z,97598.25
2022-09-03T12:44:53.338Z,97611.44
2022-09-03T12:47:36.188Z,97597.00
2022-09-03T12:50:13.710Z,97614.50
2022-09-03T12:52:49.762Z,97608.84
2022-09-03T12:55:35.213Z,97601.75
2022-09-03T12:58:38.278Z,97599.13
2022-09-03T13:01:14.735Z,97597.13
2022-09-03T13:04:05.169Z,97603.81
2022-09-03T13:06:50.354Z,97600.88
2022-09-03T13:09:32.273Z,97605.41
2022-09-03T13:11:59.254Z,97594.47
2022-09-03T13:14:27.218Z,97599.13
2022-09-03T13:17:07.871Z,97596.09
2022-09-03T13:20:16.586Z,97604.13
2022-09-03T13:23:12.505Z,97601.41
2022-09-03T13:26:05.322Z,97601.94
2022-09-03T13:29:10.887Z,97596.50
2022-09-03T13:32:06.247Z,97597.41
2022-09-03T13:34:32.903Z,97598.22
2022-09-03T13:37:30.631Z,97589.03
2022-09-03T13:40:11.050Z,97596.59
2022-09-03T13:42:41.830Z,97579.13
2022-09-03T13:45:29.110Z,97583.66
2022-09-03T13:48:26.221Z,97579.34
2022-09-03T13:51:09.849Z,97562.94
2022-09-03T13:54:09.974Z,97573.06
2022-09-03T13:56:52.330Z,97568.38
2022-09-03T13:59:40.793Z,97564.19
2022-09-03T14:02:29.289Z,97567.91
2022-09-03T14:05:08.052Z,97552.91
2022-09-03T14:07:34.946Z,97561.25
2022-09-03T14:10:15.731Z,97553.34
2022-09-03T14:12:47.441Z,97555.34
2022-09-03T14:15:37.265Z,97562.78
2022-09-03T14:18:29.348Z,97563.06
2022-09-03T14:21:08.215Z,97553.56
2022-09-03T14:23:46.157Z,97554.72
2022-09-03T14:26:38.565Z,97546.59
2022-09-03T14:29:11.664Z,97565.97
2022-09-03T14:32:05.411Z,97555.75
2022-09-03T14:34:50.814Z,97554.50
2022-09-03T14:37:49.902Z,97556.09
2022-09-03T14:40:43.902Z,97551.03
2022-09-03T14:43:20.517Z,97542.50
2022-09-03T14:46:18.208Z,97556.63
2022-09-03T14:49:27.107Z,97555.22
2022-09-03T14:52:03.624Z,97555.44
2022-09-03T14:54:50.313Z,97550.63
2022-09-03T14:57:49.697Z,97547.50
2022-09-03T15:00:22.443Z,97554.78
2022-09-03T15:03:16.308Z,97548.03
2022-09-03T15:06:09.024Z,97552.25
2022-09-03T15:08:36.339Z,97549.84
2022-09-03T15:11:14.762Z,97557.31
2022-09-03T15:14:13.146Z,97556.16
2022-09-03T15:16:59.987Z,97550.16
2022-09-03T15:20:03.890Z,97557.94
2022-09-03T15:22:30.370Z,97557.06
2022-09-03T15:25:22.296Z,97560.47
2022-09-03T15:28:02.982Z,97555.31
2022-09-03T15:30:48.737Z,97555.41
2022-09-03T15:33:36.198Z,97560.63
2022-09-03T15:36:28.089Z,97555.47
2022-09-03T15:39:06.749Z,97541.81
2022-09-03T15:41:58.421Z,97554.22
2022-09-03T15:44:28.493Z,97567.41
2022-09-03T15:47:05.370Z,97552.06
2022-09-03T15:50:02.985Z,97556.50
2022-09-03T15:53:28.830Z,97556.69
2022-09-03T15:56:26.105Z,97572.78
2022-09-03T15:59:14.562Z,97565.16
2022-09-03T16:01:54.593Z,97561.28
2022-09-03T16:04:36.442Z,97561.38
2022-09-03T16:07:21.412Z,97566.78
2022-09-03T16:10:30.246Z,97558.63
2022-09-03T16:13:09.830Z,97564.09
2022-09-03T16:15:45.834Z,97547.06
2022-09-03T16:18:30.638Z,97572.31
2022-09-03T16:21:04.345Z,97561.09
2022-09-03T16:24:09.878Z,97570.41
2022-09-03T16:26:46.645Z,97565.78
2022-09-03T16:29:16.070Z,97568.53
2022-09-03T16:32:12.503Z,97562.63
2022-09-03T16:35:03.806Z,97576.31
2022-09-03T16:37:52.447Z,97577.91
2022-09-03T16:40:27.971Z,97570.94
2022-09-03T16:42:57.560Z,97569.81
2022-09-03T16:45:39.524Z,97563.13
2022-09-03T16:48:06.054Z,97573.22
2022-09-03T16:50:41.319Z,97567.84
2022-09-03T16:54:03.249Z,97576.84
2022-09-03T16:56:50.347Z,97559.78
2022-09-03T16:59:41.752Z,97571.66
2022-09-03T17:02:41.477Z,97569.03
2022-09-03T17:05:35.040Z,97567.66
2022-09-03T17:08:15.930Z,97571.09
2022-09-03T17:11:20.338Z,97570.66
2022-09-03T17:14:31.459Z,97573.75
2022-09-03T17:17:09.774Z,97578.59
2022-09-03T17:20:33.125Z,97576.75
2022-09-03T17:23:38.008Z,97584.56
2022-09-03T17:26:13.030Z,97587.38
2022-09-03T17:29:10.205Z,97589.16
2022-09-03T17:31:51.549Z,97591.97
2022-09-03T17:34:36.828Z,97594.28
2022-09-03T17:37:31.561Z,97601.69
2022-09-03T17:40:32.724Z,97599.81
2022-09-03T17:43:28.368Z,97605.25
2022-09-03T17:46:09.810Z,97603.91
2022-09-03T17:48:49.830Z,97600.88
2022-09-03T17:51:32.751Z,97604.94
2022-09-03T17:54:34.555Z,97611.69
2022-09-03T17:57:21.893Z,97608.66
2022-09-03T18:00:09.815Z,97612.69
2022-09-03T18:02:43.945Z,97614.50
2022-09-03T18:05:25.067Z,97626.66
2022-09-03T18:08:04.209Z,97626.13
2022-09-03T18:10:44.128Z,97631.28
2022-09-03T18:13:24.857Z,97626.75
2022-09-03T18:16:18.295Z,97632.72
2022-09-03T18:18:52.816Z,97633.47
2022-09-03T18:21:44.062Z,97636.66
2022-09-03T18:24:50.652Z,97631.94
2022-09-03T18:27:55.234Z,97638.31
2022-09-03T18:30:40.613Z,97621.09
2022-09-03T18:33:26.006Z,97643.22
2022-09-03T18:36:11.258Z,97650.22
2022-09-03T18:38:57.814Z,97658.81
2022-09-03T18:42:11.986Z,97674.38
2022-09-03T18:45:22.962Z,97669.91
2022-09-03T18:48:40.730Z,97674.09
2022-09-03T18:51:53.349Z,97688.28
2022-09-03T18:55:23.732Z,97692.75
2022-09-03T18:58:22.387Z,97700.47
2022-09-03T19:01:57.138Z,97700.34
2022-09-03T19:05:07.635Z,97706.19
2022-09-03T19:08:11.521Z,97718.53
2022-09-03T19:11:13.366Z,97699.69
2022-09-03T19:14:00.016Z,97719.97
2022-09-03T19:17:05.975Z,97727.44
2022-09-03T19:19:53.754Z,97725.72
2022-09-03T19:22:48.178Z,97724.41
2022-09-03T19:25:34.650Z,97730.25
2022-09-03T19:28:33.703Z,97732.53
2022-09-03T19:31:55.146Z,97728.19
2022-09-03T19:35:04.328Z,97745.25
2022-09-03T19:38:11.308Z,97745.38
2022-09-03T19:41:04.664Z,97752.19
2022-09-03T19:44:03.767Z,97752.03
2022-09-03T19:46:59.376Z,97756.84
2022-09-03T19:49:50.591Z,97761.09
2022-09-03T19:52:48.727Z,97769.03
2022-09-03T19:55:40.245Z,97732.34
2022-09-03T19:58:42.074Z,97764.41
2022-09-03T20:01:29.513Z,97764.63
2022-09-03T20:04:17.720Z,97767.00
2022-09-03T20:07:04.327Z,97779.22
2022-09-03T20:09:56.334Z,97775.50
2022-09-03T20:12:27.907Z,97769.47
2022-09-03T20:14:54.455Z,97784.47
2022-09-03T20:17:45.976Z,97789.28
2022-09-03T20:20:41.965Z,97792.91
2022-09-03T20:23:37.844Z,97791.09
2022-09-03T20:26:07.287Z,97797.88
2022-09-03T20:29:15.524Z,97760.91
2022-09-03T20:31:55.462Z,97780.66
2022-09-03T20:34:35.890Z,97786.16
2022-09-03T20:37:17.438Z,97787.44
2022-09-03T20:40:08.408Z,97790.25
2022-09-03T20:43:07.579Z,97780.53
2022-09-03T20:46:06.964Z,97782.75
2022-09-03T20:48:49.512Z,97782.75
2022-09-03T20:51:28.834Z,97778.91
2022-09-03T20:54:08.778Z,97760.78
2022-09-03T20:56:57.104Z,97775.50
2022-09-03T20:59:44.463Z,97788.38
2022-09-03T21:02:30.446Z,97792.25
2022-09-03T21:05:15.371Z,97780.53
2022-09-03T21:07:44.933Z,97780.44
2022-09-03T21:10:24.862Z,97786.84
2022-09-03T21:13:22.315Z,97785.44
2022-09-03T21:15:56.625Z,97781.03
2022-09-03T21:18:48.460Z,97792.09
2022-09-03T21:21:36.244Z,97800.09
2022-09-03T21:24:10.363Z,97797.97
2022-09-03T21:26:46.098Z,97796.34
2022-09-03T21:29:22.188Z,97796.34
2022-09-03T21:31:54.907Z,97796.59
2022-09-03T21:34:30.999Z,97781.56
2022-09-03T21:37:01.228Z,97774.38
2022-09-03T21:39:43.275Z,97794.00
2022-09-03T21:42:30.764Z,97802.50
2022-09-03T21:45:12.809Z,97788.22
2022-09-03T21:47:47.637Z,97803.78
2022-09-03T21:50:20.665Z,97802.28
2022-09-03T21:53:15.913Z,97805.31
2022-09-03T21:56:08.218Z,97806.38
2022-09-03T21:59:09.005Z,97802.59
2022-09-03T22:01:58.973Z,97807.59
2022-09-03T22:04:26.870Z,97814.56
2022-09-03T22:07:38.098Z,97826.34
2022-09-03T22:10:20.344Z,97827.16
2022-09-03T22:13:00.622Z,97824.56
2022-09-03T22:15:28.575Z,97828.72
2022-09-03T22:18:23.703Z,97825.69
2022-09-03T22:21:04.371Z,97836.47
2022-09-03T22:23:43.646Z,97832.03
2022-09-03T22:26:23.575Z,97825.63
2022-09-03T22:29:03.868Z,97846.78
2022-09-03T22:32:01.248Z,97842.25
2022-09-03T22:34:33.618Z,97849.41
2022-09-03T22:37:06.816Z,97844.69
2022-09-03T22:39:40.520Z,97853.88
2022-09-03T22:42:27.419Z,97852.81
2022-09-03T22:45:20.417Z,97858.63
2022-09-03T22:48:06.856Z,97859.34
2022-09-03T22:50:58.966Z,97857.75
2022-09-03T22:53:53.410Z,97855.69
2022-09-03T22:56:22.447Z,97857.34
2022-09-03T22:58:55.789Z,97839.38
2022-09-03T23:01:30.733Z,97849.84
2022-09-03T23:04:06.963Z,97860.75
2022-09-03T23:06:38.505Z,97853.63
2022-09-03T23:09:10.014Z,97864.53
2022-09-03T23:11:43.762Z,97865.78
2022-09-03T23:14:24.458Z,97856.97
2022-09-03T23:16:55.985Z,97857.63
2022-09-03T23:19:44.700Z,97860.50
2022-09-03T23:22:17.956Z,97861.13
2022-09-03T23:24:44.511Z,97868.34
2022-09-03T23:27:18.862Z,97873.13
2022-09-03T23:29:51.106Z,97868.84
2022-09-03T23:32:17.646Z,97848.94
2022-09-03T23:34:44.433Z,97873.19
2022-09-03T23:37:34.483Z,97866.19
2022-09-03T23:40:07.645Z,97872.38
2022-09-03T23:43:31.117Z,97868.88
2022-09-03T23:46:03.952Z,97876.91
2022-09-03T23:48:45.591Z,97880.41
2022-09-03T23:51:24.281Z,97880.91
2022-09-03T23:54:18.631Z,97874.22
2022-09-03T23:56:50.966Z,97878.81
2022-09-03T23:59:28.825Z,97877.03
